Terminal Aerodrome Forecast
Issued by NWS

Home | Current Version | Previous Version | Text Only | Print | Product List | Glossary On
Versions: 1 2 3 4 5 6 7 8 9 10 11 12 13 14 15 16
594
FTUS43 KOAX 110520
TAFCDR
TAF
KCDR 110520Z 1106/1206 02007KT P6SM BKN011 BKN020
     FM110900 33007KT P6SM BKN060
     FM111500 29010G20KT P6SM SCT060=

USA.gov is the U.S. government's official web portal to all federal, state and local government web resources and services.